createdAt,value
2023-05-09T00:01:25.789Z,1021.36
2023-05-09T00:03:30.545Z,1021.36
2023-05-09T00:05:25.733Z,1021.36
2023-05-09T00:07:25.791Z,1021.29
2023-05-09T00:09:25.695Z,1021.28
2023-05-09T00:11:25.746Z,1021.23
2023-05-09T00:13:25.726Z,1021.23
2023-05-09T00:15:25.707Z,1021.17
2023-05-09T00:17:25.743Z,1021.17
2023-05-09T00:19:25.834Z,1021.13
2023-05-09T00:21:25.759Z,1021.12
2023-05-09T00:23:25.794Z,1021.12
2023-05-09T00:25:25.793Z,1021.11
2023-05-09T00:27:28.650Z,1021.11
2023-05-09T00:29:25.804Z,1021.09
2023-05-09T00:31:25.828Z,1021.09
2023-05-09T00:33:25.730Z,1021.05
2023-05-09T00:35:25.897Z,1021.04
2023-05-09T00:37:25.711Z,1020.97
2023-05-09T00:39:25.715Z,1020.97
2023-05-09T00:41:25.712Z,1020.97
2023-05-09T00:43:25.890Z,1020.92
2023-05-09T00:45:25.689Z,1020.91
2023-05-09T00:47:25.793Z,1020.78
2023-05-09T00:49:25.844Z,1020.77
2023-05-09T00:51:25.705Z,1020.77
2023-05-09T00:53:28.832Z,1020.69
2023-05-09T00:55:25.817Z,1020.68
2023-05-09T00:57:25.781Z,1020.68
2023-05-09T00:59:25.863Z,1020.68
2023-05-09T01:01:25.883Z,1020.61
2023-05-09T01:03:25.788Z,1020.65
2023-05-09T01:05:25.744Z,1020.62
2023-05-09T01:07:25.730Z,1020.62
2023-05-09T01:09:25.913Z,1020.62
2023-05-09T01:11:25.774Z,1020.59
2023-05-09T01:13:28.094Z,1020.54
2023-05-09T01:17:25.918Z,1020.45
2023-05-09T01:19:25.827Z,1020.45
2023-05-09T01:21:27.403Z,1020.43
2023-05-09T01:23:25.693Z,1020.38
2023-05-09T01:25:25.763Z,1020.38
2023-05-09T01:27:25.724Z,1020.38
2023-05-09T01:29:25.800Z,1020.34
2023-05-09T01:31:25.721Z,1020.36
2023-05-09T01:33:25.854Z,1020.36
2023-05-09T01:35:25.889Z,1020.34
2023-05-09T01:37:36.670Z,1020.34
2023-05-09T01:39:25.986Z,1020.34
2023-05-09T01:41:25.913Z,1020.27
2023-05-09T01:43:40.574Z,1020.22
2023-05-09T01:45:40.376Z,1020.21
2023-05-09T01:47:40.518Z,1020.23
2023-05-09T01:49:40.550Z,1020.26
2023-05-09T01:51:42.254Z,1020.26
2023-05-09T01:53:40.382Z,1020.25
2023-05-09T01:55:40.409Z,1020.22
2023-05-09T01:57:40.438Z,1020.21
2023-05-09T01:59:40.427Z,1020.21
2023-05-09T02:01:40.422Z,1020.12
2023-05-09T02:03:40.368Z,1020.17
2023-05-09T02:05:42.575Z,1020.16
2023-05-09T02:07:40.371Z,1020.18
2023-05-09T02:09:40.458Z,1020.18
2023-05-09T02:11:40.399Z,1020.20
2023-05-09T02:13:40.406Z,1020.21
2023-05-09T02:15:40.818Z,1020.19
2023-05-09T02:17:40.367Z,1020.19
2023-05-09T02:19:40.356Z,1020.19
2023-05-09T02:21:40.400Z,1020.16
2023-05-09T02:23:40.380Z,1020.24
2023-05-09T02:25:43.346Z,1020.24
2023-05-09T02:27:40.528Z,1020.24
2023-05-09T02:29:40.530Z,1020.24
2023-05-09T02:31:40.479Z,1020.22
2023-05-09T02:33:40.433Z,1020.23
2023-05-09T02:35:40.409Z,1020.22
2023-05-09T02:37:40.539Z,1020.22
2023-05-09T02:39:40.638Z,1020.20
2023-05-09T02:41:40.393Z,1020.19
2023-05-09T02:43:40.379Z,1020.15
2023-05-09T02:45:40.621Z,1020.13
2023-05-09T02:47:40.496Z,1020.13
2023-05-09T02:49:44.246Z,1020.09
2023-05-09T02:51:40.363Z,1020.13
2023-05-09T02:53:40.354Z,1020.11
2023-05-09T02:55:40.358Z,1020.11
2023-05-09T02:57:40.416Z,1020.10
2023-05-09T02:59:40.404Z,1020.10
2023-05-09T03:01:40.578Z,1020.04
2023-05-09T03:03:40.510Z,1020.02
2023-05-09T03:05:40.416Z,1020.02
2023-05-09T03:07:40.382Z,1020.05
2023-05-09T03:09:41.310Z,1020.02
2023-05-09T03:11:40.448Z,1020.01
2023-05-09T03:13:40.377Z,1020.01
2023-05-09T03:15:40.434Z,1020.01
2023-05-09T03:18:40.490Z,1020.01
2023-05-09T03:20:40.438Z,1020.01
2023-05-09T03:22:40.392Z,1020.02
2023-05-09T03:24:40.470Z,1020.00
2023-05-09T03:26:40.474Z,1019.99
2023-05-09T03:28:40.465Z,1019.99
2023-05-09T03:30:40.460Z,1019.95
2023-05-09T03:32:40.391Z,1019.94
2023-05-09T03:34:40.571Z,1019.94
2023-05-09T03:36:40.418Z,1019.96
2023-05-09T03:38:40.483Z,1019.96
2023-05-09T03:40:40.426Z,1019.96
2023-05-09T03:42:40.496Z,1019.89
2023-05-09T03:44:40.664Z,1019.91
2023-05-09T03:46:40.694Z,1019.91
2023-05-09T03:48:40.446Z,1019.91
2023-05-09T03:50:40.663Z,1019.90
2023-05-09T03:52:40.530Z,1019.93
2023-05-09T03:54:40.422Z,1019.94
2023-05-09T03:56:40.535Z,1019.94
2023-05-09T03:58:43.550Z,1019.91
2023-05-09T04:00:40.605Z,1019.89
2023-05-09T04:02:40.709Z,1019.85
2023-05-09T04:04:40.441Z,1019.86
2023-05-09T04:06:40.670Z,1019.86
2023-05-09T04:08:40.449Z,1019.85
2023-05-09T04:10:40.679Z,1019.85
2023-05-09T04:12:40.487Z,1019.84
2023-05-09T04:14:40.579Z,1019.86
2023-05-09T04:16:40.652Z,1019.86
2023-05-09T04:18:40.732Z,1019.83
2023-05-09T04:20:40.419Z,1019.83
2023-05-09T04:22:44.838Z,1019.79
2023-05-09T04:24:40.512Z,1019.73
2023-05-09T04:26:41.481Z,1019.73
2023-05-09T04:28:40.679Z,1019.77
2023-05-09T04:30:40.534Z,1019.75
2023-05-09T04:32:40.565Z,1019.76
2023-05-09T04:34:44.123Z,1019.76
2023-05-09T04:36:40.465Z,1019.76
2023-05-09T04:38:40.474Z,1019.76
2023-05-09T04:40:40.509Z,1019.72
2023-05-09T04:42:40.657Z,1019.71
2023-05-09T04:44:40.505Z,1019.71
2023-05-09T04:46:40.532Z,1019.74
2023-05-09T04:48:40.507Z,1019.70
2023-05-09T04:50:40.510Z,1019.69
2023-05-09T04:52:40.578Z,1019.63
2023-05-09T04:54:40.568Z,1019.63
2023-05-09T04:56:40.515Z,1019.72
2023-05-09T04:58:40.514Z,1019.67
2023-05-09T05:00:45.398Z,1019.67
2023-05-09T05:02:40.536Z,1019.67
2023-05-09T05:04:40.563Z,1019.61
2023-05-09T05:06:40.492Z,1019.66
2023-05-09T05:08:40.601Z,1019.70
2023-05-09T05:10:40.687Z,1019.73
2023-05-09T05:12:40.798Z,1019.73
2023-05-09T05:14:40.616Z,1019.75
2023-05-09T05:16:40.648Z,1019.77
2023-05-09T05:18:40.526Z,1019.77
2023-05-09T05:20:40.528Z,1019.74
2023-05-09T05:22:40.747Z,1019.74
2023-05-09T05:24:40.584Z,1019.77
2023-05-09T05:26:40.697Z,1019.76
2023-05-09T05:28:40.515Z,1019.74
2023-05-09T05:30:40.583Z,1019.74
2023-05-09T05:32:40.687Z,1019.76
2023-05-09T05:34:40.515Z,1019.78
2023-05-09T05:36:40.529Z,1019.79
2023-05-09T05:38:40.697Z,1019.81
2023-05-09T05:40:40.555Z,1019.81
2023-05-09T05:42:40.608Z,1019.81
2023-05-09T05:44:40.573Z,1019.79
2023-05-09T05:46:40.610Z,1019.78
2023-05-09T05:48:40.505Z,1019.80
2023-05-09T05:50:40.563Z,1019.80
2023-05-09T05:52:40.550Z,1019.75
2023-05-09T05:54:40.566Z,1019.76
2023-05-09T05:56:41.782Z,1019.72
2023-05-09T05:58:40.487Z,1019.72
2023-05-09T06:00:42.295Z,1019.72
2023-05-09T06:02:43.777Z,1019.68
2023-05-09T06:04:40.679Z,1019.65
2023-05-09T06:06:40.648Z,1019.65
2023-05-09T06:08:40.744Z,1019.65
2023-05-09T06:10:40.554Z,1019.64
2023-05-09T06:12:40.727Z,1019.64
2023-05-09T06:14:40.742Z,1019.60
2023-05-09T06:16:40.571Z,1019.59
2023-05-09T06:18:40.576Z,1019.59
2023-05-09T06:20:40.544Z,1019.54
2023-05-09T06:22:40.596Z,1019.54
2023-05-09T06:24:42.553Z,1019.49
2023-05-09T06:26:40.607Z,1019.42
2023-05-09T06:28:40.523Z,1019.42
2023-05-09T06:30:40.640Z,1019.49
2023-05-09T06:32:40.709Z,1019.55
2023-05-09T06:34:40.695Z,1019.51
2023-05-09T06:36:40.604Z,1019.51
2023-05-09T06:38:40.544Z,1019.43
2023-05-09T06:40:40.617Z,1019.36
2023-05-09T06:42:40.559Z,1019.34
2023-05-09T06:44:40.619Z,1019.37
2023-05-09T06:46:40.667Z,1019.37
2023-05-09T06:48:43.498Z,1019.40
2023-05-09T06:50:40.600Z,1019.39
2023-05-09T06:52:40.620Z,1019.38
2023-05-09T06:54:40.627Z,1019.32
2023-05-09T06:57:40.630Z,1019.28
2023-05-09T06:59:40.626Z,1019.28
2023-05-09T07:01:40.692Z,1019.25
2023-05-09T07:03:40.683Z,1019.25
2023-05-09T07:04:43.732Z,1019.25
2023-05-09T07:07:40.623Z,1019.17
2023-05-09T07:09:40.636Z,1019.17
2023-05-09T07:11:40.585Z,1019.10
2023-05-09T07:13:40.635Z,1019.10
2023-05-09T07:15:42.537Z,1019.08
2023-05-09T07:17:40.678Z,1019.09
2023-05-09T07:19:40.585Z,1019.09
2023-05-09T07:21:40.630Z,1019.01
2023-05-09T07:23:40.678Z,1018.98
2023-05-09T07:25:40.649Z,1018.88
2023-05-09T07:27:40.679Z,1018.84
2023-05-09T07:29:40.671Z,1018.84
2023-05-09T07:31:40.669Z,1018.80
2023-05-09T07:33:40.720Z,1018.75
2023-05-09T07:35:43.920Z,1018.69
2023-05-09T07:37:40.708Z,1018.69
2023-05-09T07:39:40.678Z,1018.66
2023-05-09T07:41:44.250Z,1018.62
2023-05-09T07:43:40.657Z,1018.62
2023-05-09T07:45:40.602Z,1018.59
2023-05-09T07:47:40.819Z,1018.59
2023-05-09T07:49:40.609Z,1018.53
2023-05-09T07:51:40.616Z,1018.59
2023-05-09T07:53:40.850Z,1018.53
2023-05-09T07:55:40.743Z,1018.55
2023-05-09T07:57:40.941Z,1018.55
2023-05-09T08:01:52.319Z,1018.49
2023-05-09T08:03:52.402Z,1018.44
2023-05-09T08:05:55.212Z,1018.44
2023-05-09T08:07:52.275Z,1018.34
2023-05-09T08:09:52.338Z,1018.38
2023-05-09T08:11:52.298Z,1018.40
2023-05-09T08:13:52.320Z,1018.38
2023-05-09T08:15:52.929Z,1018.38
2023-05-09T08:17:52.480Z,1018.29
2023-05-09T08:19:52.338Z,1018.28
2023-05-09T08:21:52.432Z,1018.23
2023-05-09T08:23:52.373Z,1018.23
2023-05-09T08:25:52.587Z,1018.23
2023-05-09T08:27:53.138Z,1018.09
2023-05-09T08:29:52.310Z,1018.05
2023-05-09T08:31:52.322Z,1018.03
2023-05-09T08:33:52.448Z,1018.03
2023-05-09T08:35:52.337Z,1018.03
2023-05-09T08:37:52.353Z,1018.10
2023-05-09T08:39:52.296Z,1017.97
2023-05-09T08:41:52.586Z,1017.93
2023-05-09T08:43:52.326Z,1017.93
2023-05-09T08:45:52.359Z,1017.98
2023-05-09T08:47:52.487Z,1017.88
2023-05-09T08:49:57.259Z,1017.83
2023-05-09T08:51:52.386Z,1017.82
2023-05-09T08:53:52.424Z,1017.82
2023-05-09T08:55:52.378Z,1017.79
2023-05-09T08:57:52.422Z,1017.80
2023-05-09T08:59:52.441Z,1017.78
2023-05-09T09:01:52.463Z,1017.78
2023-05-09T09:03:52.385Z,1017.78
2023-05-09T09:05:52.640Z,1017.78
2023-05-09T09:07:55.329Z,1017.76
2023-05-09T09:09:52.393Z,1017.74
2023-05-09T09:11:52.342Z,1017.74
2023-05-09T09:13:52.481Z,1017.61
2023-05-09T09:15:52.415Z,1017.56
2023-05-09T09:17:52.448Z,1017.53
2023-05-09T09:19:52.409Z,1017.51
2023-05-09T09:21:52.428Z,1017.51
2023-05-09T09:23:52.353Z,1017.50
2023-05-09T09:25:52.461Z,1017.45
2023-05-09T09:27:52.430Z,1017.43
2023-05-09T09:29:55.761Z,1017.40
2023-05-09T09:31:52.455Z,1017.40
2023-05-09T09:33:52.746Z,1017.34
2023-05-09T09:35:52.376Z,1017.30
2023-05-09T09:37:57.853Z,1017.29
2023-05-09T09:39:52.341Z,1017.29
2023-05-09T09:41:55.375Z,1017.20
2023-05-09T09:43:52.496Z,1017.06
2023-05-09T09:45:52.446Z,1017.06
2023-05-09T09:47:52.452Z,1017.04
2023-05-09T09:49:52.424Z,1017.04
2023-05-09T09:51:52.409Z,1016.96
2023-05-09T09:53:52.530Z,1016.98
2023-05-09T09:55:52.375Z,1016.86
2023-05-09T09:57:53.593Z,1016.78
2023-05-09T09:59:52.514Z,1016.78
2023-05-09T10:01:52.439Z,1016.80
2023-05-09T10:03:52.507Z,1016.76
2023-05-09T10:05:52.422Z,1016.77
2023-05-09T10:07:52.378Z,1016.77
2023-05-09T10:09:52.419Z,1016.63
2023-05-09T10:11:52.400Z,1016.73
2023-05-09T10:13:52.447Z,1016.68
2023-05-09T10:15:54.003Z,1016.67
2023-05-09T10:17:52.521Z,1016.67
2023-05-09T10:19:52.505Z,1016.66
2023-05-09T10:21:52.405Z,1016.54
2023-05-09T10:23:52.521Z,1016.52
2023-05-09T10:25:52.553Z,1016.52
2023-05-09T10:27:52.487Z,1016.52
2023-05-09T10:29:54.330Z,1016.49
2023-05-09T10:31:52.678Z,1016.46
2023-05-09T10:33:52.532Z,1016.37
2023-05-09T10:35:52.720Z,1016.37
2023-05-09T10:37:52.474Z,1016.36
2023-05-09T10:39:52.402Z,1016.36
2023-05-09T10:41:52.538Z,1016.27
2023-05-09T10:43:55.342Z,1016.30
2023-05-09T10:45:52.745Z,1016.30
2023-05-09T10:47:52.531Z,1016.20
2023-05-09T10:49:52.520Z,1016.12
2023-05-09T10:51:52.431Z,1016.15
2023-05-09T10:53:52.543Z,1016.14
2023-05-09T10:55:52.486Z,1016.14
2023-05-09T10:57:52.438Z,1016.08
2023-05-09T10:59:53.691Z,1016.04
2023-05-09T11:01:52.816Z,1015.96
2023-05-09T11:03:52.495Z,1015.96
2023-05-09T11:05:53.496Z,1015.90
2023-05-09T11:07:52.655Z,1015.90
2023-05-09T11:09:52.569Z,1015.82
2023-05-09T11:11:52.908Z,1015.75
2023-05-09T11:13:52.607Z,1015.75
2023-05-09T11:15:52.602Z,1015.65
2023-05-09T11:17:52.584Z,1015.61
2023-05-09T11:19:52.536Z,1015.65
2023-05-09T11:21:52.584Z,1015.58
2023-05-09T11:23:54.988Z,1015.58
2023-05-09T11:25:52.496Z,1015.51
2023-05-09T11:27:52.520Z,1015.50
2023-05-09T11:29:52.514Z,1015.48
2023-05-09T11:31:52.714Z,1015.43
2023-05-09T11:34:52.485Z,1015.40
2023-05-09T11:36:53.560Z,1015.40
2023-05-09T11:38:52.567Z,1015.34
2023-05-09T11:40:54.771Z,1015.30
2023-05-09T11:42:52.755Z,1015.23
2023-05-09T11:44:52.536Z,1015.11
2023-05-09T11:46:52.564Z,1015.11
2023-05-09T11:48:53.027Z,1015.11
2023-05-09T11:50:52.550Z,1015.16
2023-05-09T11:52:52.509Z,1015.09
2023-05-09T11:54:52.637Z,1015.05
2023-05-09T11:56:52.546Z,1015.05
2023-05-09T11:58:52.530Z,1014.99
2023-05-09T12:00:52.504Z,1015.00
2023-05-09T12:02:52.700Z,1014.94
2023-05-09T12:04:52.635Z,1014.94
2023-05-09T12:06:52.532Z,1014.88
2023-05-09T12:08:52.632Z,1014.85
2023-05-09T12:10:52.516Z,1014.84
2023-05-09T12:12:52.724Z,1014.83
2023-05-09T12:14:52.614Z,1014.83
2023-05-09T12:16:55.880Z,1014.74
2023-05-09T12:18:52.632Z,1014.71
2023-05-09T12:20:52.793Z,1014.61
2023-05-09T12:22:52.512Z,1014.57
2023-05-09T12:24:52.686Z,1014.57
2023-05-09T12:26:52.640Z,1014.52
2023-05-09T12:28:52.540Z,1014.52
2023-05-09T12:30:52.836Z,1014.51
2023-05-09T12:32:52.661Z,1014.46
2023-05-09T12:34:52.549Z,1014.46
2023-05-09T12:36:52.620Z,1014.41
2023-05-09T12:38:52.538Z,1014.35
2023-05-09T12:40:52.683Z,1014.30
2023-05-09T12:42:54.161Z,1014.30
2023-05-09T12:44:52.946Z,1014.22
2023-05-09T12:46:52.652Z,1014.23
2023-05-09T12:48:52.621Z,1014.23
2023-05-09T12:50:52.553Z,1014.14
2023-05-09T12:53:02.689Z,1014.14
2023-05-09T12:54:52.655Z,1014.12
2023-05-09T12:56:52.749Z,1014.07
2023-05-09T12:58:52.662Z,1014.07
2023-05-09T13:00:52.681Z,1014.03
2023-05-09T13:02:52.716Z,1014.03
2023-05-09T13:04:52.594Z,1014.04
2023-05-09T13:06:52.667Z,1013.98
2023-05-09T13:08:52.550Z,1013.98
2023-05-09T13:10:57.851Z,1013.98
2023-05-09T13:12:52.584Z,1013.87
2023-05-09T13:14:52.601Z,1013.79
2023-05-09T13:16:52.711Z,1013.77
2023-05-09T13:18:55.527Z,1013.76
2023-05-09T13:20:53.282Z,1013.76
2023-05-09T13:22:52.608Z,1013.69
2023-05-09T13:24:52.822Z,1013.72
2023-05-09T13:26:52.629Z,1013.64
2023-05-09T13:28:52.578Z,1013.64
2023-05-09T13:30:52.619Z,1013.64
2023-05-09T13:32:52.644Z,1013.63
2023-05-09T13:34:52.721Z,1013.59
2023-05-09T13:36:52.748Z,1013.51
2023-05-09T13:38:52.642Z,1013.51
2023-05-09T13:40:52.710Z,1013.49
2023-05-09T13:42:52.580Z,1013.52
2023-05-09T13:44:52.773Z,1013.41
2023-05-09T13:46:52.683Z,1013.39
2023-05-09T13:48:52.622Z,1013.39
2023-05-09T13:50:52.824Z,1013.39
2023-05-09T13:52:52.810Z,1013.29
2023-05-09T13:54:52.700Z,1013.31
2023-05-09T13:56:52.618Z,1013.29
2023-05-09T13:58:52.709Z,1013.29
2023-05-09T14:00:52.580Z,1013.23
2023-05-09T14:02:52.830Z,1013.23
2023-05-09T14:04:52.711Z,1013.13
2023-05-09T14:06:53.229Z,1013.13
2023-05-09T14:11:08.595Z,1013.07
2023-05-09T14:13:08.648Z,1013.02
2023-05-09T14:15:08.459Z,1012.95
2023-05-09T14:17:08.810Z,1012.95
2023-05-09T14:19:08.480Z,1012.91
2023-05-09T14:21:08.747Z,1012.86
2023-05-09T14:23:08.437Z,1012.87
2023-05-09T14:25:08.437Z,1012.81
2023-05-09T14:27:08.553Z,1012.81
2023-05-09T14:29:08.543Z,1012.73
2023-05-09T14:31:09.062Z,1012.73
2023-05-09T14:33:08.564Z,1012.66
2023-05-09T14:35:08.545Z,1012.66
2023-05-09T14:37:08.552Z,1012.66
2023-05-09T14:39:08.728Z,1012.57
2023-05-09T14:41:08.561Z,1012.52
2023-05-09T14:43:08.536Z,1012.52
2023-05-09T14:45:08.666Z,1012.52
2023-05-09T14:47:08.824Z,1012.47
2023-05-09T14:49:08.510Z,1012.48
2023-05-09T14:51:11.806Z,1012.39
2023-05-09T14:53:08.543Z,1012.38
2023-05-09T14:55:08.456Z,1012.38
2023-05-09T14:57:08.722Z,1012.34
2023-05-09T14:59:08.934Z,1012.33
2023-05-09T15:01:08.630Z,1012.26
2023-05-09T15:03:12.512Z,1012.26
2023-05-09T15:05:10.630Z,1012.26
2023-05-09T15:07:11.269Z,1012.17
2023-05-09T15:09:08.691Z,1012.11
2023-05-09T15:11:08.559Z,1012.11
2023-05-09T15:13:08.576Z,1012.11
2023-05-09T15:15:08.527Z,1012.06
2023-05-09T15:17:08.675Z,1012.04
2023-05-09T15:19:08.879Z,1012.01
2023-05-09T15:21:09.512Z,1011.94
2023-05-09T15:23:08.791Z,1011.94
2023-05-09T15:25:08.543Z,1011.87
2023-05-09T15:27:08.512Z,1011.86
2023-05-09T15:29:08.593Z,1011.82
2023-05-09T15:31:08.538Z,1011.80
2023-05-09T15:33:08.744Z,1011.80
2023-05-09T15:35:08.660Z,1011.74
2023-05-09T15:37:08.605Z,1011.72
2023-05-09T15:39:08.687Z,1011.67
2023-05-09T15:41:08.690Z,1011.67
2023-05-09T15:43:08.676Z,1011.76
2023-05-09T15:45:08.577Z,1011.72
2023-05-09T15:47:11.368Z,1011.71
2023-05-09T15:49:08.712Z,1011.70
2023-05-09T15:51:08.529Z,1011.70
2023-05-09T15:53:11.623Z,1011.70
2023-05-09T15:55:08.851Z,1011.64
2023-05-09T15:57:08.579Z,1011.59
2023-05-09T15:59:08.573Z,1011.53
2023-05-09T16:01:08.709Z,1011.53
2023-05-09T16:03:08.735Z,1011.51
2023-05-09T16:05:08.560Z,1011.51
2023-05-09T16:07:08.872Z,1011.45
2023-05-09T16:09:08.812Z,1011.45
2023-05-09T16:11:08.915Z,1011.43
2023-05-09T16:13:10.003Z,1011.39
2023-05-09T16:15:08.840Z,1011.31
2023-05-09T16:17:08.559Z,1011.32
2023-05-09T16:19:08.733Z,1011.32
2023-05-09T16:21:08.688Z,1011.32
2023-05-09T16:23:08.565Z,1011.26
2023-05-09T16:26:08.836Z,1011.22
2023-05-09T16:28:10.102Z,1011.18
2023-05-09T16:30:08.587Z,1011.14
2023-05-09T16:32:08.784Z,1011.14
2023-05-09T16:34:08.706Z,1011.14
2023-05-09T16:35:12.487Z,1011.12
2023-05-09T16:38:08.768Z,1011.09
2023-05-09T16:40:08.641Z,1011.01
2023-05-09T16:42:08.643Z,1011.01
2023-05-09T16:44:08.626Z,1011.03
2023-05-09T16:46:08.652Z,1010.98
2023-05-09T16:48:08.622Z,1010.95
2023-05-09T16:50:08.620Z,1010.92
2023-05-09T16:52:09.695Z,1010.92
2023-05-09T16:54:08.688Z,1010.92
2023-05-09T16:56:08.594Z,1010.87
2023-05-09T16:58:08.564Z,1010.80
2023-05-09T17:00:08.646Z,1010.78
2023-05-09T17:02:09.477Z,1010.78
2023-05-09T17:04:08.673Z,1010.74
2023-05-09T17:06:08.718Z,1010.73
2023-05-09T17:08:10.368Z,1010.73
2023-05-09T17:10:08.722Z,1010.73
2023-05-09T17:12:08.582Z,1010.66
2023-05-09T17:14:08.609Z,1010.66
2023-05-09T17:16:08.663Z,1010.58
2023-05-09T17:18:08.641Z,1010.59
2023-05-09T17:20:08.649Z,1010.59
2023-05-09T17:22:08.671Z,1010.55
2023-05-09T17:24:08.651Z,1010.55
2023-05-09T17:26:12.969Z,1010.53
2023-05-09T17:28:08.606Z,1010.51
2023-05-09T17:30:08.695Z,1010.51
2023-05-09T17:32:08.589Z,1010.46
2023-05-09T17:34:08.808Z,1010.45
2023-05-09T17:36:08.583Z,1010.36
2023-05-09T17:38:08.667Z,1010.37
2023-05-09T17:40:08.649Z,1010.37
2023-05-09T17:42:08.648Z,1010.36
2023-05-09T17:44:08.616Z,1010.31
2023-05-09T17:46:08.919Z,1010.28
2023-05-09T17:48:09.324Z,1010.28
2023-05-09T17:50:08.777Z,1010.27
2023-05-09T17:52:08.594Z,1010.29
2023-05-09T17:54:08.658Z,1010.29
2023-05-09T17:56:08.655Z,1010.25
2023-05-09T17:58:12.285Z,1010.25
2023-05-09T18:00:08.799Z,1010.20
2023-05-09T18:02:08.607Z,1010.17
2023-05-09T18:04:08.601Z,1010.21
2023-05-09T18:06:11.512Z,1010.19
2023-05-09T18:08:08.620Z,1010.19
2023-05-09T18:10:08.616Z,1010.17
2023-05-09T18:12:08.820Z,1010.20
2023-05-09T18:14:08.634Z,1010.23
2023-05-09T18:16:08.719Z,1010.23
2023-05-09T18:18:08.715Z,1010.25
2023-05-09T18:20:08.847Z,1010.27
2023-05-09T18:22:08.645Z,1010.26
2023-05-09T18:24:08.643Z,1010.25
2023-05-09T18:26:08.730Z,1010.25
2023-05-09T18:28:11.540Z,1010.32
2023-05-09T18:30:08.705Z,1010.34
2023-05-09T18:32:08.910Z,1010.42
2023-05-09T18:34:12.510Z,1010.42
2023-05-09T18:36:08.725Z,1010.42
2023-05-09T18:38:08.754Z,1010.96
2023-05-09T18:40:08.866Z,1010.90
2023-05-09T18:42:08.785Z,1010.97
2023-05-09T18:44:08.669Z,1010.97
2023-05-09T18:46:08.697Z,1010.93
2023-05-09T18:48:08.747Z,1010.87
2023-05-09T18:50:08.816Z,1011.17
2023-05-09T18:52:08.683Z,1011.40
2023-05-09T18:54:08.696Z,1011.40
2023-05-09T18:56:08.834Z,1011.68
2023-05-09T18:58:08.748Z,1011.71
2023-05-09T19:00:08.678Z,1011.84
2023-05-09T19:02:08.672Z,1011.91
2023-05-09T19:04:08.795Z,1011.91
2023-05-09T19:06:08.721Z,1011.85
2023-05-09T19:08:09.027Z,1011.88
2023-05-09T19:10:08.757Z,1011.94
2023-05-09T19:12:08.674Z,1011.94
2023-05-09T19:14:08.808Z,1012.01
2023-05-09T19:16:08.798Z,1012.01
2023-05-09T19:18:08.786Z,1012.03
2023-05-09T19:20:08.720Z,1012.03
2023-05-09T19:22:08.812Z,1012.03
2023-05-09T19:24:08.734Z,1012.03
2023-05-09T19:26:08.721Z,1012.07
2023-05-09T19:28:08.785Z,1012.07
2023-05-09T19:30:12.036Z,1012.12
2023-05-09T19:32:10.266Z,1012.12
2023-05-09T19:34:08.843Z,1012.11
2023-05-09T19:36:08.964Z,1012.12
2023-05-09T19:38:08.931Z,1012.15
2023-05-09T19:40:08.866Z,1012.17
2023-05-09T19:42:08.810Z,1012.17
2023-05-09T19:44:08.785Z,1012.24
2023-05-09T19:46:08.800Z,1012.28
2023-05-09T19:48:08.809Z,1012.25
2023-05-09T19:50:08.764Z,1012.25
2023-05-09T19:52:08.683Z,1012.20
2023-05-09T19:54:08.799Z,1012.22
2023-05-09T19:56:08.861Z,1012.22
2023-05-09T19:58:08.873Z,1012.19
2023-05-09T20:00:08.770Z,1012.19
2023-05-09T20:02:08.857Z,1012.12
2023-05-09T20:04:08.947Z,1012.08
2023-05-09T20:06:08.870Z,1012.04
2023-05-09T20:10:20.010Z,1012.06
2023-05-09T20:12:19.987Z,1012.09
2023-05-09T20:14:20.017Z,1011.99
2023-05-09T20:16:20.149Z,1012.01
2023-05-09T20:18:19.999Z,1012.01
2023-05-09T20:20:24.871Z,1012.06
2023-05-09T20:22:20.023Z,1012.04
2023-05-09T20:24:20.177Z,1012.05
2023-05-09T20:26:20.122Z,1012.07
2023-05-09T20:28:20.059Z,1012.07
2023-05-09T20:30:19.977Z,1011.99
2023-05-09T20:32:20.001Z,1012.01
2023-05-09T20:34:19.997Z,1011.96
2023-05-09T20:36:20.062Z,1011.96
2023-05-09T20:38:20.043Z,1011.96
2023-05-09T20:40:20.003Z,1011.86
2023-05-09T20:42:20.020Z,1011.83
2023-05-09T20:44:20.458Z,1011.81
2023-05-09T20:46:20.027Z,1011.81
2023-05-09T20:48:20.116Z,1011.82
2023-05-09T20:51:20.062Z,1011.82
2023-05-09T20:53:20.031Z,1011.84
2023-05-09T20:55:19.992Z,1011.76
2023-05-09T20:57:20.122Z,1011.73
2023-05-09T20:59:20.068Z,1011.73
2023-05-09T21:01:20.059Z,1011.73
2023-05-09T21:03:20.157Z,1011.73
2023-05-09T21:05:20.106Z,1011.70
2023-05-09T21:07:20.045Z,1011.70
2023-05-09T21:09:20.496Z,1011.69
2023-05-09T21:11:20.021Z,1011.69
2023-05-09T21:13:20.094Z,1011.70
2023-05-09T21:15:20.025Z,1011.63
2023-05-09T21:17:20.222Z,1011.63
2023-05-09T21:19:20.030Z,1011.63
2023-05-09T21:21:20.021Z,1011.62
2023-05-09T21:23:20.089Z,1011.64
2023-05-09T21:25:20.072Z,1011.62
2023-05-09T21:27:20.183Z,1011.63
2023-05-09T21:29:20.143Z,1011.63
2023-05-09T21:31:20.064Z,1011.58
2023-05-09T21:33:23.737Z,1011.56
2023-05-09T21:35:20.096Z,1011.52
2023-05-09T21:37:20.068Z,1011.51
2023-05-09T21:39:20.187Z,1011.51
2023-05-09T21:41:20.112Z,1011.53
2023-05-09T21:43:20.199Z,1011.47
2023-05-09T21:45:20.184Z,1011.45
2023-05-09T21:47:22.922Z,1011.45
2023-05-09T21:49:20.974Z,1011.47
2023-05-09T21:51:20.170Z,1011.46
2023-05-09T21:53:20.024Z,1011.45
2023-05-09T21:55:20.064Z,1011.45
2023-05-09T21:57:20.051Z,1011.45
2023-05-09T21:59:20.029Z,1011.45
2023-05-09T22:01:20.185Z,1011.37
2023-05-09T22:03:20.383Z,1011.34
2023-05-09T22:05:20.093Z,1011.28
2023-05-09T22:07:20.036Z,1011.28
2023-05-09T22:09:20.100Z,1011.27
2023-05-09T22:11:20.096Z,1011.29
2023-05-09T22:13:20.211Z,1011.23
2023-05-09T22:15:20.169Z,1011.23
2023-05-09T22:17:20.308Z,1011.26
2023-05-09T22:19:20.400Z,1011.27
2023-05-09T22:21:20.048Z,1011.30
2023-05-09T22:23:20.078Z,1011.35
2023-05-09T22:25:20.055Z,1011.35
2023-05-09T22:27:20.151Z,1011.32
2023-05-09T22:29:20.117Z,1011.33
2023-05-09T22:31:20.272Z,1011.31
2023-05-09T22:33:20.056Z,1011.34
2023-05-09T22:35:23.378Z,1011.34
2023-05-09T22:37:20.095Z,1011.31
2023-05-09T22:39:20.128Z,1011.31
2023-05-09T22:41:20.120Z,1011.28
2023-05-09T22:43:20.076Z,1011.28
2023-05-09T22:45:20.106Z,1011.29
2023-05-09T22:47:20.378Z,1011.30
2023-05-09T22:49:20.268Z,1011.29
2023-05-09T22:51:20.150Z,1011.27
2023-05-09T22:53:20.173Z,1011.27
2023-05-09T22:55:20.082Z,1011.25
2023-05-09T22:57:20.119Z,1011.23
2023-05-09T22:59:20.323Z,1011.24
2023-05-09T23:01:20.267Z,1011.25
2023-05-09T23:03:20.185Z,1011.25
2023-05-09T23:05:20.267Z,1011.22
2023-05-09T23:07:20.091Z,1011.23
2023-05-09T23:09:20.141Z,1011.23
2023-05-09T23:11:20.419Z,1011.20
2023-05-09T23:13:22.600Z,1011.20
2023-05-09T23:15:20.188Z,1011.18
2023-05-09T23:17:20.103Z,1011.16
2023-05-09T23:19:20.102Z,1011.16
2023-05-09T23:21:20.126Z,1011.16
2023-05-09T23:23:20.157Z,1011.12
2023-05-09T23:25:20.131Z,1011.12
2023-05-09T23:27:20.204Z,1011.12
2023-05-09T23:29:20.099Z,1011.09
2023-05-09T23:31:20.336Z,1011.09
2023-05-09T23:33:20.172Z,1011.07
2023-05-09T23:35:20.557Z,1011.06
2023-05-09T23:37:22.942Z,1011.04
2023-05-09T23:39:20.221Z,1011.04
2023-05-09T23:41:20.184Z,1011.04
2023-05-09T23:43:20.332Z,1011.03
2023-05-09T23:45:20.169Z,1011.00
2023-05-09T23:47:20.835Z,1011.00
2023-05-09T23:49:20.139Z,1011.00
2023-05-09T23:51:20.323Z,1010.91
2023-05-09T23:53:20.160Z,1010.92
2023-05-09T23:55:20.272Z,1010.86
2023-05-09T23:57:20.217Z,1010.86
2023-05-09T23:59:20.250Z,1010.86
